Terminal Aerodrome Forecast
Issued by NWS North Platte, NE

Home | Current Version | Previous Version | Text Only | Print | Product List | Glossary On
Versions: 1 2 3 4 5 6 7 8 9 10 11 12 13 14 15
868
FTUS43 KLBF 180536
TAFLBF
TAF
KLBF 180536Z 1806/1906 01009KT P6SM -RA BKN050 BKN070 OVC080
      TEMPO 1806/1809 OVC025
     FM180900 35013KT P6SM VCSH OVC025
     FM181200 33013KT P6SM OVC100
     FM181500 32013G20KT P6SM SKC
     FM181800 32020G28KT P6SM SKC
     FM190000 31006KT P6SM SCT250=

USA.gov is the U.S. government's official web portal to all federal, state and local government web resources and services.